Terminal Aerodrome Forecast
Issued by NWS

Home | Current Version | Previous Version | Text Only | Print | Product List | Glossary On
Versions: 1 2 3 4 5 6 7 8 9 10 11 12 13 14 15 16 17 18 19 20 21 22 23 24 25 26 27 28 29 30
000
FTUS41 KOKX 290221 AAA
TAFSWF
TAF AMD
KSWF 290221Z 2902/3006 26005KT 6SM -SHRA BR SCT030 BKN080
     FM290700 VRB04KT 6SM SHRA SCT020 BKN050
     FM291000 07008KT 2SM SHRA BR OVC010
      TEMPO 2910/2914 1SM -TSRA OVC005CB
     FM291400 35012G18KT 5SM -RA BR OVC015
     FM291800 36010KT P6SM BKN030
     FM292000 01008KT P6SM BKN040
     FM300000 VRB04KT P6SM SCT040 BKN250
      AMD NOT SKED=

USA.gov is the U.S. government's official web portal to all federal, state and local government web resources and services.